Flight Track Log - Related Links

Times and Time Zones

All times are in EDT time to prevent confusion due to time zone crossing. See the ASQ6150 flight status page for this flight to view local times or setup timezone preferences in your user account.

Time Position Orientation Groundspeed Altitude Reporting Facility
EDT Latitude Longitude Course Direction KTS MPH feet Rate Location/Type
Sat 03:17:26 PM 32.9719 -79.9683 309° West 192 221 4,200  Level Jacksonville Center
Sat 03:18:00 PM 33.1897 -80.1837 340° North  Level FlightAware Approximate
Sat 03:18:26 PM 33.0189 -79.9222 39° Northeast 205 236 6,400  Level Jacksonville Center
Sat 03:19:00 PM 33.2935 -80.2301 337° Northwest  Level FlightAware Approximate
Sat 03:19:26 PM 33.0656 -79.8711 43° Northeast 211 243 8,600  Level Jacksonville Center
Sat 03:20:00 PM 33.3755 -80.3133 309° West  Level FlightAware Approximate
Sat 03:20:26 PM 33.1208 -79.8247 35° Northeast 222 255 10,500  Level Jacksonville Center
Sat 03:21:00 PM 33.4496 -80.4119 314° West  Level FlightAware Approximate
Sat 03:21:26 PM 33.1803 -79.7781 33° Northeast 243 280 12,200  Level Jacksonville Center
Sat 03:22:00 PM 33.5133 -80.5200 309° West  Level FlightAware Approximate
Sat 03:22:26 PM 33.2458 -79.7308 31° Northeast 263 303 13,700  Level Jacksonville Center
Sat 03:23:26 PM 33.3178 -79.6836 29° Northeast 275 316 15,600 1,350 Climbing Jacksonville Center
Sat 03:24:26 PM 33.4036 -79.6931 355° North 287 330 16,400 1,100 Climbing Jacksonville Center
Sat 03:25:26 PM 33.4925 -79.7444 334° Northwest 303 349 17,800 1,400 Climbing Jacksonville Center
Sat 03:26:26 PM 33.5814 -79.7914 336° Northwest 324 373 19,200 1,150 Climbing Jacksonville Center
Sat 03:27:26 PM 33.6764 -79.8378 338° Northwest 347 399 20,100 800 Climbing Jacksonville Center
Sat 03:28:26 PM 33.7814 -79.8667 347° North 373 429 20,800 650 Climbing Jacksonville Center
Sat 03:29:26 PM 33.8925 -79.8903 350° North 385 443 21,400 600 Climbing Jacksonville Center
Sat 03:30:26 PM 34.0058 -79.9189 348° North 395 455 22,000 700 Climbing Jacksonville Center
Sat 03:31:26 PM 34.1214 -79.9478 348° North 411 473 22,800 900 Climbing Jacksonville Center
Sat 03:32:26 PM 34.2367 -79.9764 348° North 416 479 23,800 1,000 Climbing Jacksonville Center
Sat 03:33:26 PM 34.3500 -80.0078 347° North 416 479 24,800 1,000 Climbing Jacksonville Center
Sat 03:34:26 PM 34.4653 -80.0342 349° North 416 479 25,800 1,000 Climbing Jacksonville Center
Sat 03:35:26 PM 34.5789 -80.0658 347° North 416 479 26,800 1,075 Climbing Jacksonville Center
Sat 03:37:19 PM 34.7981 -80.1206 348° North 407 468 28,900 1,075 Climbing Atlanta Center
Sat 03:38:19 PM 34.9119 -80.1508 348° North 407 468 29,900 1,000 Climbing Atlanta Center
Sat 03:39:19 PM 35.0178 -80.1992 339° North 412 474 30,900 1,000 Climbing Atlanta Center
Sat 03:40:19 PM 35.1256 -80.2475 340° North 412 474 31,900 1,000 Climbing Atlanta Center
Sat 03:41:19 PM 35.2314 -80.2961 339° North 412 474 32,900 1,000 Climbing Atlanta Center
Sat 03:42:19 PM 35.3372 -80.3447 339° North 412 474 33,900 550 Climbing Atlanta Center
Sat 03:43:19 PM 35.4453 -80.3983 338° Northwest 412 474 34,000 50 Climbing Atlanta Center
Sat 03:44:19 PM 35.5617 -80.4519 339° North 424 488 34,000  Level Atlanta Center
Sat 03:45:19 PM 35.6842 -80.5081 340° North 452 520 34,000  Level Atlanta Center
Sat 03:46:19 PM 35.8069 -80.5667 339° North 458 527 34,000  Level Atlanta Center
Sat 03:47:19 PM 35.9317 -80.6253 339° North 476 548 34,000  Level Atlanta Center
Sat 03:48:19 PM 36.0456 -80.6797 339° North 481 554 34,000  Level Atlanta Center
Sat 03:49:19 PM 36.1850 -80.7433 340° North 481 554 34,000  Level Atlanta Center
Sat 03:50:19 PM 36.3175 -80.7869 345° North 487 560 34,000  Level Atlanta Center
Sat 03:52:49 PM 36.6481 -80.8903 346° North 491 565 34,000  Level Indianapolis Center
Sat 03:53:53 PM 36.7786 -80.9306 346° North 493 567 34,000  Level Indianapolis Center
Sat 03:54:53 PM 36.9089 -80.9697 346° North 494 568 34,000  Level Indianapolis Center
Sat 03:55:57 PM 37.0389 -81.0114 346° North 496 571 34,000  Level Indianapolis Center
Sat 03:56:57 PM 37.1936 -81.0586 346° North 489 563 34,000  Level Indianapolis Center
Sat 03:58:00 PM 37.3256 -81.0994 346° North 496 571 34,000  Level Indianapolis Center
Sat 03:59:01 PM 37.4561 -81.1411 346° North 495 570 34,000  Level Indianapolis Center
Sat 04:00:02 PM 37.5869 -81.1819 346° North 496 571 34,000  Level Indianapolis Center
Sat 04:01:06 PM 37.7442 -81.2325 346° North 499 574 34,000  Level Indianapolis Center
Sat 04:02:06 PM 37.8658 -81.2714 346° North 498 573 34,000  Level Indianapolis Center
Sat 04:03:10 PM 38.0006 -81.3131 346° North 499 574 34,000  Level Indianapolis Center
Sat 04:04:09 PM 38.1636 -81.3653 346° North 503 579 34,000  Level Indianapolis Center
Sat 04:05:13 PM 38.2981 -81.4092 346° North 500 575 34,000  Level Indianapolis Center
Sat 04:06:14 PM 38.4328 -81.4519 346° North 497 572 34,000  Level Indianapolis Center
Sat 04:07:17 PM 38.5686 -81.4964 346° North 502 578 34,000  Level Indianapolis Center
Sat 04:08:19 PM 38.7097 -81.5442 345° North 507 583 34,000  Level Indianapolis Center
Sat 04:09:20 PM 38.8564 -81.5897 346° North 506 582 34,000  Level Indianapolis Center
Sat 04:10:21 PM 38.9936 -81.6328 346° North 508 585 34,000  Level Indianapolis Center
Sat 04:11:21 PM 39.1314 -81.6667 349° North 504 580 34,000  Level Indianapolis Center
Sat 04:12:22 PM 39.2708 -81.6981 350° North 509 586 34,000 -528 Level Indianapolis Center
Sat 04:13:26 PM 39.4075 -81.7314 349° North 502 578 32,900 -1,632 Descending Indianapolis Center
Sat 04:14:27 PM 39.5442 -81.7644 349° North 500 575 30,600 -2,381 Descending Indianapolis Center
Sat 04:15:32 PM 39.6808 -81.7964 350° North 499 574 27,900 -2,448 Descending Indianapolis Center
Sat 04:16:32 PM 39.8467 -81.7897 North 494 568 25,500 -1,950 Descending Indianapolis Center
Sat 04:17:32 PM 39.9861 -81.7747 North 500 575 24,000 -1,438 Descending Indianapolis Center
Sat 04:18:33 PM 40.1128 -81.7581 North 493 567 22,600 -1,392 Descending Indianapolis Center
Sat 04:19:37 PM 40.2472 -81.7417 North 481 554 21,100 -1,645 Descending Indianapolis Center
Sat 04:20:37 PM 40.3747 -81.7250 North 458 527 19,200 -2,132 Descending Indianapolis Center
Sat 04:21:38 PM 40.5158 -81.7081 North 434 499 16,800 -2,208 Descending Indianapolis Center
Sat 04:22:42 PM 40.6319 -81.6928 North 419 482 14,600 -2,177 Descending Indianapolis Center
Sat 04:23:42 PM 40.7450 -81.6783 North 407 468 12,300 -2,083 Descending Indianapolis Center
Sat 04:24:43 PM 40.8533 -81.6647 North 390 449 10,400 -1,263 Descending Indianapolis Center
Sat 04:25:36 PM 40.9375 -81.6797 352° North 371 427 9,900 -265 Descending Cleveland Center
Sat 04:26:36 PM 41.0369 -81.7419 335° Northwest 353 406 9,900 -350 Level Cleveland Center
Sat 04:27:36 PM 41.1114 -81.8039 328° Northwest 337 388 9,200 -1,250 Descending Cleveland Center
Sat 04:28:36 PM 41.1794 -81.8578 329° Northwest 307 353 7,400 -2,150 Descending Cleveland Center
Sat 04:29:36 PM 41.2414 -81.9058 330° Northwest 275 316 4,900 -1,900 Descending Cleveland Center
Sat 04:30:36 PM 41.2992 -81.9511 330° Northwest 249 287 3,600 -1,300 Descending Cleveland Center

Login

Don't have an account? Register now (free) for customized features, flight alerts, and more!